Cumberland Gap, Tennessee
Current Conditions -  °F | °C
As of 11:35 PM on Tuesday 25 Nov 2014 (Local Time) from K1A6 Reporting Station
Clear Clear  
Wind Chill: 43°   Ceiling: Unl
Heat Index: 43°   Visibility: 10mi
Dew Point: 32°   Wind: 0mph
Humidity: 66%   Direction: NA
Pressure: 30.09"   Gusts: NA
Location:  36.6°N, 83.67°W
Report Text: K1A6 260435Z AUTO 00000KT 10SM CLR 06/00 A3009 RMK AO2 T00600000
Loading
Personal Weather Stations






























Interactive Weather Map New forecast layout! Learn more

10-Day Weather Forecast

Advertisements
Track Severe Weather on mobile